createdAt,value
2023-12-09T00:01:32.124Z,10.90
2023-12-09T00:04:00.489Z,11.00
2023-12-09T00:06:28.946Z,10.30
2023-12-09T00:08:57.395Z,10.30
2023-12-09T00:11:25.538Z,10.30
2023-12-09T00:13:53.650Z,9.70
2023-12-09T00:16:21.958Z,9.70
2023-12-09T00:18:50.359Z,9.30
2023-12-09T00:21:18.876Z,9.20
2023-12-09T00:23:48.417Z,9.80
2023-12-09T00:26:17.314Z,9.50
2023-12-09T00:28:46.662Z,9.70
2023-12-09T00:31:14.909Z,9.60
2023-12-09T00:33:43.425Z,9.70
2023-12-09T00:36:11.877Z,9.70
2023-12-09T00:38:41.199Z,10.00
2023-12-09T00:41:10.876Z,10.20
2023-12-09T00:43:39.109Z,10.70
2023-12-09T00:46:07.614Z,11.50
2023-12-09T00:48:35.934Z,10.70
2023-12-09T00:51:04.926Z,10.70
2023-12-09T00:53:33.135Z,11.10
2023-12-09T00:56:01.329Z,11.90
2023-12-09T00:58:29.524Z,11.60
2023-12-09T01:00:57.750Z,11.90
2023-12-09T01:03:26.006Z,11.50
2023-12-09T01:05:54.317Z,11.30
2023-12-09T01:08:22.522Z,11.20
2023-12-09T01:10:50.683Z,11.90
2023-12-09T01:13:19.166Z,11.90
2023-12-09T01:15:47.647Z,11.10
2023-12-09T01:18:15.945Z,12.80
2023-12-09T01:20:44.180Z,13.10
2023-12-09T01:23:12.854Z,13.20
2023-12-09T01:25:41.038Z,13.20
2023-12-09T01:28:09.221Z,13.00
2023-12-09T01:30:37.444Z,12.60
2023-12-09T01:33:05.962Z,12.80
2023-12-09T01:35:34.295Z,12.20
2023-12-09T01:38:02.913Z,12.50
2023-12-09T01:40:31.056Z,12.70
2023-12-09T01:42:59.236Z,12.50
2023-12-09T01:45:27.494Z,13.00
2023-12-09T01:47:55.864Z,13.70
2023-12-09T01:50:24.617Z,12.60
2023-12-09T01:52:53.368Z,12.00
2023-12-09T01:55:21.582Z,12.30
2023-12-09T01:57:49.845Z,12.60
2023-12-09T02:00:20.705Z,13.10
2023-12-09T02:02:50.262Z,12.20
2023-12-09T02:05:18.870Z,14.10
2023-12-09T02:07:47.098Z,14.40
2023-12-09T02:10:18.013Z,14.60
2023-12-09T02:12:55.503Z,16.60
2023-12-09T02:15:28.441Z,15.30
2023-12-09T02:18:06.018Z,13.80
2023-12-09T02:20:35.147Z,14.30
2023-12-09T02:23:09.850Z,14.60
2023-12-09T02:25:39.366Z,14.60
2023-12-09T02:28:15.019Z,13.50
2023-12-09T02:31:03.424Z,13.70
2023-12-09T02:33:33.223Z,13.80
2023-12-09T02:36:04.894Z,13.60
2023-12-09T02:38:35.738Z,13.20
2023-12-09T02:41:05.064Z,13.80
2023-12-09T02:43:33.245Z,14.00
2023-12-09T02:46:01.429Z,14.00
2023-12-09T02:48:29.930Z,14.00
2023-12-09T02:50:58.176Z,11.90
2023-12-09T02:53:26.337Z,11.70
2023-12-09T02:55:54.485Z,12.60
2023-12-09T02:58:22.634Z,11.60
2023-12-09T03:00:50.877Z,11.40
2023-12-09T03:03:19.133Z,11.90
2023-12-09T03:05:47.432Z,11.20
2023-12-09T03:08:15.684Z,11.30
2023-12-09T03:10:43.844Z,10.90
2023-12-09T03:13:13.014Z,11.80
2023-12-09T03:15:41.220Z,11.90
2023-12-09T03:18:09.588Z,11.00
2023-12-09T03:20:38.122Z,11.40
2023-12-09T03:23:06.273Z,12.00
2023-12-09T03:25:34.599Z,12.20
2023-12-09T03:28:02.772Z,12.70
2023-12-09T03:30:31.019Z,11.50
2023-12-09T03:32:59.378Z,11.00
2023-12-09T03:35:27.856Z,11.80
2023-12-09T03:37:55.976Z,11.20
2023-12-09T03:40:24.112Z,10.20
2023-12-09T03:42:52.203Z,10.00
2023-12-09T03:45:20.391Z,9.80
2023-12-09T03:47:48.690Z,10.00
2023-12-09T03:50:17.027Z,11.20
2023-12-09T03:52:45.192Z,10.50
2023-12-09T03:55:15.637Z,9.50
2023-12-09T03:57:45.614Z,10.80
2023-12-09T04:00:14.264Z,10.20
2023-12-09T04:02:42.410Z,11.00
2023-12-09T04:05:11.332Z,10.30
2023-12-09T04:07:39.599Z,9.80
2023-12-09T04:10:10.389Z,10.90
2023-12-09T04:12:38.747Z,10.90
2023-12-09T04:15:08.364Z,12.40
2023-12-09T04:17:37.626Z,11.50
2023-12-09T04:20:10.179Z,11.60
2023-12-09T04:22:41.525Z,11.70
2023-12-09T04:25:10.244Z,11.70
2023-12-09T04:27:38.462Z,12.70
2023-12-09T04:30:07.362Z,12.20
2023-12-09T04:32:36.491Z,12.20
2023-12-09T04:35:05.075Z,13.00
2023-12-09T04:37:33.547Z,12.10
2023-12-09T04:40:02.508Z,13.20
2023-12-09T04:42:30.903Z,13.60
2023-12-09T04:44:59.287Z,14.40
2023-12-09T04:47:27.965Z,14.50
2023-12-09T04:49:56.127Z,14.30
2023-12-09T04:52:24.835Z,14.80
2023-12-09T04:54:53.724Z,13.70
2023-12-09T04:57:22.188Z,13.40
2023-12-09T04:59:50.748Z,14.10
2023-12-09T05:02:21.637Z,13.90
2023-12-09T05:04:50.220Z,13.90
2023-12-09T05:07:18.397Z,13.60
2023-12-09T05:09:46.623Z,14.60
2023-12-09T05:12:15.637Z,16.00
2023-12-09T05:14:43.858Z,16.90
2023-12-09T05:17:12.779Z,15.40
2023-12-09T05:19:41.029Z,15.70
2023-12-09T05:22:09.323Z,16.60
2023-12-09T05:24:37.565Z,14.70
2023-12-09T05:27:06.100Z,13.60
2023-12-09T05:29:34.475Z,14.10
2023-12-09T05:32:03.048Z,14.40
2023-12-09T05:34:31.447Z,13.30
2023-12-09T05:36:59.741Z,14.30
2023-12-09T05:39:27.986Z,14.00
2023-12-09T05:41:56.203Z,14.30
2023-12-09T05:44:24.381Z,14.50
2023-12-09T05:46:52.765Z,14.60
2023-12-09T05:49:21.086Z,13.80
2023-12-09T05:51:49.427Z,13.50
2023-12-09T05:54:17.773Z,13.80
2023-12-09T05:56:52.031Z,14.10
2023-12-09T05:59:20.175Z,14.40
2023-12-09T06:01:48.321Z,13.10
2023-12-09T06:04:16.481Z,12.70
2023-12-09T06:06:44.792Z,12.60
2023-12-09T06:09:12.976Z,12.80
2023-12-09T06:11:41.218Z,12.90
2023-12-09T06:14:09.436Z,13.30
2023-12-09T06:16:37.611Z,13.70
2023-12-09T06:19:05.769Z,13.00
2023-12-09T06:21:34.099Z,13.90
2023-12-09T06:24:02.468Z,12.70
2023-12-09T06:26:30.696Z,13.40
2023-12-09T06:28:58.855Z,13.80
2023-12-09T06:31:26.991Z,13.20
2023-12-09T06:33:55.224Z,13.90
2023-12-09T06:36:23.525Z,15.20
2023-12-09T06:38:51.649Z,14.30
2023-12-09T06:41:20.103Z,14.60
2023-12-09T06:43:48.238Z,15.70
2023-12-09T06:46:16.473Z,14.90
2023-12-09T06:48:44.796Z,14.80
2023-12-09T06:51:17.455Z,14.50
2023-12-09T06:53:45.808Z,14.10
2023-12-09T06:56:23.988Z,14.00
2023-12-09T06:58:52.643Z,13.30
2023-12-09T07:01:25.137Z,13.70
2023-12-09T07:03:53.559Z,12.40
2023-12-09T07:06:23.579Z,12.20
2023-12-09T07:08:52.784Z,13.70
2023-12-09T07:11:22.414Z,15.10
2023-12-09T07:13:51.216Z,14.20
2023-12-09T07:16:19.948Z,15.20
2023-12-09T07:18:49.449Z,15.20
2023-12-09T07:21:18.662Z,13.60
2023-12-09T07:23:47.038Z,13.90
2023-12-09T07:26:15.578Z,20.60
2023-12-09T07:28:43.789Z,26.30
2023-12-09T07:31:12.775Z,31.00
2023-12-09T07:33:41.102Z,21.70
2023-12-09T07:36:09.843Z,17.00
2023-12-09T07:38:38.086Z,16.80
2023-12-09T07:41:06.513Z,15.30
2023-12-09T07:43:35.654Z,17.70
2023-12-09T07:46:05.195Z,14.70
2023-12-09T07:48:33.638Z,14.60
2023-12-09T07:51:02.611Z,15.50
2023-12-09T07:53:31.359Z,13.30
2023-12-09T07:55:59.644Z,15.50
2023-12-09T07:58:28.090Z,15.50
2023-12-09T08:00:56.529Z,25.30
2023-12-09T08:03:24.886Z,27.30
2023-12-09T08:05:53.292Z,19.70
2023-12-09T08:08:21.459Z,14.90
2023-12-09T08:10:49.693Z,13.60
2023-12-09T08:13:17.860Z,11.70
2023-12-09T08:15:46.079Z,13.30
2023-12-09T08:18:14.376Z,13.90
2023-12-09T08:20:42.812Z,15.50
2023-12-09T08:23:10.996Z,13.00
2023-12-09T08:25:39.309Z,12.40
2023-12-09T08:28:08.583Z,13.20
2023-12-09T08:30:37.095Z,12.00
2023-12-09T08:33:05.510Z,12.50
2023-12-09T08:35:34.100Z,12.60
2023-12-09T08:38:02.395Z,14.80
2023-12-09T08:40:30.555Z,15.70
2023-12-09T08:42:58.844Z,15.60
2023-12-09T08:45:27.022Z,14.20
2023-12-09T08:47:55.301Z,14.70
2023-12-09T08:50:25.530Z,12.30
2023-12-09T08:52:54.624Z,13.80
2023-12-09T08:55:24.020Z,15.70
2023-12-09T08:57:53.755Z,15.00
2023-12-09T09:00:25.109Z,13.40
2023-12-09T09:02:57.218Z,13.30
2023-12-09T09:05:25.876Z,11.00
2023-12-09T09:07:54.161Z,14.80
2023-12-09T09:10:24.207Z,16.40
2023-12-09T09:12:52.634Z,13.40
2023-12-09T09:15:22.127Z,11.50
2023-12-09T09:17:50.772Z,14.20
2023-12-09T09:20:19.228Z,14.40
2023-12-09T09:22:48.594Z,11.10
2023-12-09T09:25:17.295Z,10.80
2023-12-09T09:27:46.009Z,12.20
2023-12-09T09:30:15.081Z,11.70
2023-12-09T09:32:43.490Z,12.40
2023-12-09T09:35:11.857Z,10.70
2023-12-09T09:37:39.950Z,9.30
2023-12-09T09:40:08.740Z,9.10
2023-12-09T09:43:01.715Z,10.70
2023-12-09T09:45:32.172Z,10.50
2023-12-09T09:48:07.407Z,10.50
2023-12-09T09:50:43.544Z,11.40
2023-12-09T09:53:14.094Z,10.90
2023-12-09T09:55:43.317Z,9.30
2023-12-09T09:58:14.645Z,9.00
2023-12-09T10:00:43.256Z,11.00
2023-12-09T10:03:11.715Z,10.60
2023-12-09T10:05:40.030Z,17.80
2023-12-09T10:08:08.199Z,21.90
2023-12-09T10:10:36.557Z,13.30
2023-12-09T10:13:05.074Z,11.00
2023-12-09T10:15:33.632Z,12.20
2023-12-09T10:18:05.084Z,13.40
2023-12-09T10:20:36.389Z,11.00
2023-12-09T10:23:04.923Z,10.90
2023-12-09T10:25:33.126Z,10.60
2023-12-09T10:28:01.347Z,10.00
2023-12-09T10:30:30.052Z,9.80
2023-12-09T10:33:00.635Z,9.20
2023-12-09T10:35:29.649Z,9.20
2023-12-09T10:38:02.207Z,9.30
2023-12-09T10:40:30.402Z,10.70
2023-12-09T10:42:58.720Z,9.40
2023-12-09T10:45:26.976Z,12.40
2023-12-09T10:47:55.314Z,13.00
2023-12-09T10:50:23.996Z,11.30
2023-12-09T10:52:52.130Z,11.90
2023-12-09T10:55:20.890Z,11.50
2023-12-09T10:57:51.597Z,11.30
2023-12-09T11:00:20.487Z,10.90
2023-12-09T11:02:49.293Z,10.80
2023-12-09T11:05:19.369Z,11.80
2023-12-09T11:07:48.482Z,12.30
2023-12-09T11:10:17.452Z,10.80
2023-12-09T11:12:49.270Z,13.60
2023-12-09T11:15:23.547Z,11.90
2023-12-09T11:17:55.169Z,11.50
2023-12-09T11:20:26.343Z,10.20
2023-12-09T11:22:54.765Z,9.80
2023-12-09T11:25:26.617Z,9.80
2023-12-09T11:27:55.773Z,10.50
2023-12-09T11:30:38.338Z,10.80
2023-12-09T11:33:06.734Z,11.40
2023-12-09T11:35:36.510Z,12.10
2023-12-09T11:38:07.476Z,10.90
2023-12-09T11:40:35.848Z,10.30
2023-12-09T11:43:04.899Z,8.80
2023-12-09T11:45:33.432Z,10.20
2023-12-09T11:48:04.878Z,8.40
2023-12-09T11:50:33.394Z,9.30
2023-12-09T11:53:01.519Z,12.80
2023-12-09T11:55:30.624Z,8.60
2023-12-09T11:57:58.918Z,9.10
2023-12-09T12:00:27.618Z,8.30
2023-12-09T12:02:56.284Z,9.80
2023-12-09T12:05:24.711Z,7.50
2023-12-09T12:07:53.364Z,8.40
2023-12-09T12:10:21.909Z,9.50
2023-12-09T12:12:50.378Z,8.30
2023-12-09T12:15:18.972Z,12.50
2023-12-09T12:17:48.258Z,14.90
2023-12-09T12:20:16.811Z,14.30
2023-12-09T12:22:45.268Z,12.00
2023-12-09T12:25:13.660Z,24.70
2023-12-09T12:27:46.443Z,19.80
2023-12-09T12:30:15.637Z,9.50
2023-12-09T12:32:44.841Z,10.40
2023-12-09T12:35:13.745Z,18.60
2023-12-09T12:37:42.178Z,12.30
2023-12-09T12:40:11.394Z,12.40
2023-12-09T12:42:40.473Z,13.10
2023-12-09T12:45:20.192Z,12.30
2023-12-09T12:47:49.257Z,11.00
2023-12-09T12:50:18.752Z,11.70
2023-12-09T12:52:47.122Z,12.10
2023-12-09T12:55:15.440Z,12.30
2023-12-09T12:57:45.253Z,11.60
2023-12-09T13:00:15.933Z,11.60
2023-12-09T13:02:44.900Z,10.30
2023-12-09T13:05:13.406Z,10.50
2023-12-09T13:07:42.088Z,10.90
2023-12-09T13:10:11.005Z,9.70
2023-12-09T13:12:39.356Z,13.10
2023-12-09T13:15:08.562Z,11.20
2023-12-09T13:17:37.753Z,11.60
2023-12-09T13:20:06.850Z,11.40
2023-12-09T13:22:35.302Z,11.60
2023-12-09T13:25:08.542Z,12.20
2023-12-09T13:27:38.380Z,10.00
2023-12-09T13:30:08.362Z,10.00
2023-12-09T13:32:37.827Z,10.90
2023-12-09T13:35:08.055Z,10.30
2023-12-09T13:37:38.833Z,10.70
2023-12-09T13:40:08.902Z,12.90
2023-12-09T13:42:37.472Z,13.80
2023-12-09T13:45:07.045Z,12.90
2023-12-09T13:47:35.471Z,14.20
2023-12-09T13:50:06.016Z,13.70
2023-12-09T13:52:38.025Z,12.50
2023-12-09T13:55:07.051Z,10.70
2023-12-09T13:57:35.383Z,11.70
2023-12-09T14:00:09.297Z,13.80
2023-12-09T14:02:41.157Z,12.50
2023-12-09T14:05:11.565Z,11.70
2023-12-09T14:07:42.134Z,14.70
2023-12-09T14:10:11.016Z,13.40
2023-12-09T14:12:41.653Z,14.70
2023-12-09T14:15:10.954Z,13.60
2023-12-09T14:17:45.176Z,13.90
2023-12-09T14:20:16.825Z,13.50
2023-12-09T14:22:47.434Z,15.50
2023-12-09T14:25:16.065Z,15.50
2023-12-09T14:27:44.963Z,18.30
2023-12-09T14:30:14.045Z,15.50
2023-12-09T14:32:46.387Z,13.80
2023-12-09T14:35:16.113Z,19.50
2023-12-09T14:37:49.431Z,17.20
2023-12-09T14:40:18.545Z,16.90
2023-12-09T14:42:47.141Z,15.40
2023-12-09T14:45:15.902Z,17.40
2023-12-09T14:47:53.813Z,18.20
2023-12-09T14:50:28.018Z,14.80
2023-12-09T14:52:56.512Z,12.00
2023-12-09T14:55:24.781Z,12.80
2023-12-09T14:57:53.680Z,11.30
2023-12-09T15:00:22.170Z,12.20
2023-12-09T15:02:50.654Z,11.80
2023-12-09T15:05:19.023Z,12.10
2023-12-09T15:07:47.583Z,12.50
2023-12-09T15:10:16.910Z,10.80
2023-12-09T15:12:45.251Z,11.50
2023-12-09T15:15:13.797Z,12.70
2023-12-09T15:17:42.503Z,15.80
2023-12-09T15:20:11.549Z,17.90
2023-12-09T15:22:40.755Z,13.40
2023-12-09T15:25:09.914Z,13.20
2023-12-09T15:27:39.073Z,14.60
2023-12-09T15:30:09.376Z,19.10
2023-12-09T15:32:40.680Z,18.20
2023-12-09T15:35:09.815Z,18.80
2023-12-09T15:37:38.756Z,17.80
2023-12-09T15:40:12.067Z,13.50
2023-12-09T15:45:10.011Z,17.30
2023-12-09T15:47:38.437Z,12.60
2023-12-09T15:50:07.616Z,15.00
2023-12-09T15:52:36.065Z,15.90
2023-12-09T15:55:05.212Z,15.90
2023-12-09T15:57:33.592Z,17.00
2023-12-09T16:00:02.023Z,21.00
2023-12-09T16:02:34.352Z,26.50
2023-12-09T16:05:02.969Z,27.00
2023-12-09T16:07:31.521Z,25.70
2023-12-09T16:09:59.850Z,26.90
2023-12-09T16:12:28.653Z,23.00
2023-12-09T16:14:57.181Z,22.30
2023-12-09T16:17:26.386Z,20.60
2023-12-09T16:19:54.838Z,18.90
2023-12-09T16:22:23.136Z,18.30
2023-12-09T16:24:52.038Z,16.50
2023-12-09T16:27:20.518Z,16.90
2023-12-09T16:29:48.967Z,19.20
2023-12-09T16:32:17.387Z,18.30
2023-12-09T16:34:45.599Z,17.70
2023-12-09T16:37:14.044Z,16.80
2023-12-09T16:39:42.515Z,17.30
2023-12-09T16:42:10.997Z,18.70
2023-12-09T16:44:39.284Z,18.40
2023-12-09T16:47:07.475Z,16.90
2023-12-09T16:49:35.710Z,20.20
2023-12-09T16:52:05.025Z,19.20
2023-12-09T16:54:33.360Z,21.00
2023-12-09T16:57:02.352Z,19.60
2023-12-09T16:59:30.914Z,16.50
2023-12-09T17:02:00.493Z,16.70
2023-12-09T17:04:29.085Z,19.30
2023-12-09T17:06:57.581Z,24.90
2023-12-09T17:09:26.484Z,23.60
2023-12-09T17:11:54.874Z,22.10
2023-12-09T17:14:23.140Z,17.60
2023-12-09T17:16:51.380Z,18.60
2023-12-09T17:19:20.004Z,17.70
2023-12-09T17:21:48.237Z,18.50
2023-12-09T17:24:16.601Z,17.60
2023-12-09T17:26:44.731Z,20.50
2023-12-09T17:29:13.150Z,24.20
2023-12-09T17:31:43.601Z,20.30
2023-12-09T17:34:14.003Z,21.60
2023-12-09T17:36:42.358Z,16.60
2023-12-09T17:39:11.480Z,18.40
2023-12-09T17:41:40.037Z,16.80
2023-12-09T17:44:08.266Z,15.40
2023-12-09T17:46:36.384Z,16.00
2023-12-09T17:49:05.871Z,19.30
2023-12-09T17:51:34.197Z,19.40
2023-12-09T17:54:03.343Z,23.40
2023-12-09T17:56:31.693Z,26.20
2023-12-09T17:58:59.914Z,25.40
2023-12-09T18:01:29.236Z,25.40
2023-12-09T18:04:00.917Z,26.00
2023-12-09T18:06:29.786Z,32.90
2023-12-09T18:08:58.067Z,38.60
2023-12-09T18:11:26.233Z,27.20
2023-12-09T18:13:54.973Z,23.20
2023-12-09T18:16:23.225Z,19.70
2023-12-09T18:18:51.603Z,18.60
2023-12-09T18:21:19.877Z,18.00
2023-12-09T18:23:47.994Z,18.70
2023-12-09T18:26:17.480Z,17.10
2023-12-09T18:28:46.518Z,22.30
2023-12-09T18:31:15.264Z,27.20
2023-12-09T18:33:43.516Z,25.00
2023-12-09T18:36:11.927Z,28.60
2023-12-09T18:38:40.197Z,35.00
2023-12-09T18:41:08.293Z,35.60
2023-12-09T18:43:36.878Z,42.40
2023-12-09T18:46:05.562Z,36.60
2023-12-09T18:48:33.847Z,29.50
2023-12-09T18:51:03.026Z,30.30
2023-12-09T18:53:31.224Z,32.70
2023-12-09T18:56:01.941Z,43.30
2023-12-09T18:58:30.062Z,38.50
2023-12-09T19:01:05.096Z,22.20
2023-12-09T19:03:39.133Z,24.40
2023-12-09T19:06:10.064Z,21.80
2023-12-09T19:08:39.028Z,24.10
2023-12-09T19:11:07.616Z,25.50
2023-12-09T19:13:35.956Z,26.70
2023-12-09T19:16:04.565Z,16.60
2023-12-09T19:18:32.994Z,16.90
2023-12-09T19:21:01.321Z,16.30
2023-12-09T19:23:29.454Z,13.60
2023-12-09T19:25:58.028Z,13.50
2023-12-09T19:28:27.049Z,10.90
2023-12-09T19:30:56.453Z,11.40
2023-12-09T19:33:25.005Z,12.60
2023-12-09T19:35:53.633Z,13.60
2023-12-09T19:38:21.823Z,12.90
2023-12-09T19:40:50.049Z,13.70
2023-12-09T19:43:18.334Z,14.20
2023-12-09T19:45:46.503Z,12.70
2023-12-09T19:48:15.328Z,12.60
2023-12-09T19:50:45.077Z,11.90
2023-12-09T19:53:15.771Z,13.10
2023-12-09T19:55:43.928Z,13.00
2023-12-09T19:58:12.328Z,13.50
2023-12-09T20:00:42.244Z,13.30
2023-12-09T20:03:13.811Z,11.60
2023-12-09T20:05:42.121Z,11.90
2023-12-09T20:08:10.292Z,12.90
2023-12-09T20:10:38.568Z,14.30
2023-12-09T20:13:07.497Z,15.80
2023-12-09T20:15:35.986Z,16.70
2023-12-09T20:18:04.429Z,14.10
2023-12-09T20:20:33.026Z,12.30
2023-12-09T20:23:01.266Z,12.30
2023-12-09T20:25:29.511Z,9.20
2023-12-09T20:27:58.714Z,9.60
2023-12-09T20:30:27.111Z,9.40
2023-12-09T20:32:55.456Z,9.20
2023-12-09T20:35:25.472Z,10.50
2023-12-09T20:37:53.770Z,12.70
2023-12-09T20:40:21.997Z,9.60
2023-12-09T20:42:50.330Z,9.50
2023-12-09T20:45:19.594Z,9.20
2023-12-09T20:47:48.186Z,10.00
2023-12-09T20:50:18.158Z,8.50
2023-12-09T20:52:46.424Z,9.00
2023-12-09T20:55:14.896Z,8.00
2023-12-09T20:57:44.274Z,8.60
2023-12-09T21:00:13.706Z,8.40
2023-12-09T21:02:42.312Z,8.20
2023-12-09T21:05:10.726Z,8.50
2023-12-09T21:07:38.975Z,7.40
2023-12-09T21:10:07.613Z,7.10
2023-12-09T21:12:35.969Z,6.40
2023-12-09T21:15:05.375Z,6.40
2023-12-09T21:17:33.599Z,6.90
2023-12-09T21:20:01.976Z,6.90
2023-12-09T21:22:30.388Z,7.90
2023-12-09T21:24:59.052Z,7.50
2023-12-09T21:27:27.259Z,7.30
2023-12-09T21:29:55.657Z,7.20
2023-12-09T21:32:23.765Z,7.30
2023-12-09T21:34:52.052Z,8.10
2023-12-09T21:37:20.217Z,8.90
2023-12-09T21:39:48.386Z,8.90
2023-12-09T21:42:16.653Z,9.70
2023-12-09T21:44:46.109Z,8.90
2023-12-09T21:47:14.402Z,8.80
2023-12-09T21:49:42.753Z,11.30
2023-12-09T21:52:11.210Z,11.70
2023-12-09T21:54:39.961Z,11.70
2023-12-09T21:57:08.222Z,12.00
2023-12-09T21:59:36.413Z,13.60
2023-12-09T22:02:05.126Z,10.40
2023-12-09T22:04:34.451Z,9.90
2023-12-09T22:07:02.752Z,8.30
2023-12-09T22:09:31.025Z,8.20
2023-12-09T22:11:59.196Z,9.30
2023-12-09T22:14:27.380Z,10.60
2023-12-09T22:16:55.784Z,10.40
2023-12-09T22:19:25.592Z,8.80
2023-12-09T22:21:53.982Z,7.20
2023-12-09T22:24:22.264Z,5.90
2023-12-09T22:26:50.723Z,5.10
2023-12-09T22:29:19.026Z,5.70
2023-12-09T22:31:47.603Z,6.40
2023-12-09T22:34:15.870Z,6.10
2023-12-09T22:36:44.127Z,6.00
2023-12-09T22:39:13.915Z,5.80
2023-12-09T22:41:42.308Z,6.60
2023-12-09T22:44:10.509Z,6.10
2023-12-09T22:46:39.072Z,7.40
2023-12-09T22:49:07.628Z,7.40
2023-12-09T22:51:37.289Z,7.50
2023-12-09T22:54:05.931Z,6.70
2023-12-09T22:56:34.149Z,7.50
2023-12-09T22:59:02.452Z,7.00
2023-12-09T23:01:34.087Z,6.60
2023-12-09T23:04:02.839Z,6.60
2023-12-09T23:06:31.303Z,6.50
2023-12-09T23:08:59.616Z,7.30
2023-12-09T23:11:27.820Z,8.20
2023-12-09T23:13:55.987Z,8.50
2023-12-09T23:16:24.212Z,7.80
2023-12-09T23:18:52.727Z,8.70
2023-12-09T23:21:21.047Z,9.70
2023-12-09T23:23:49.500Z,9.50
2023-12-09T23:26:17.841Z,8.10
2023-12-09T23:28:46.026Z,8.10
2023-12-09T23:31:16.498Z,8.30
2023-12-09T23:33:48.232Z,7.50
2023-12-09T23:36:16.932Z,6.90
2023-12-09T23:38:45.145Z,7.40
2023-12-09T23:41:17.381Z,7.90
2023-12-09T23:43:45.800Z,7.20
2023-12-09T23:46:17.312Z,8.80
2023-12-09T23:48:45.776Z,10.60
2023-12-09T23:51:14.093Z,10.40
2023-12-09T23:53:42.247Z,10.30
2023-12-09T23:56:10.552Z,9.40
2023-12-09T23:58:38.929Z,7.50
